Time;durP1;ratioP1;P1;durP2;ratioP2;P2;SDS_P1;SDS_P2;PMS_P1;PMS_P2;Temp;Humidity;BMP_temperature;BMP_pressure;BME280_temperature;BME280_humidity;BME280_pressure;Samples;Min_cycle;Max_cycle;Signal;HPM_P1;HPM_P2
2023/06/26 00:01:59;;;;;;;;;;;;;;;;;;5013240;28;19928;-70
2023/06/26 00:04:24;;;;;;;;;;;;;;;;;;5012796;28;20444;-70
2023/06/26 00:06:50;;;;;;;;;;;;;;;;;;5016059;28;20368;-71
2023/06/26 00:09:15;;;;;;;;;;;;;;;;;;5011905;28;20368;-71
2023/06/26 00:11:40;;;;;;;;;;;;;;;;;;5010962;28;19925;-71
2023/06/26 00:14:06;;;;;;;;;;;;;;;;;;5014242;28;20387;-71
2023/06/26 00:16:32;;;;;;;;;;;;;;;;;;5013388;28;20024;-72
2023/06/26 00:18:58;;;;;;;;;;;;;;;;;;5013686;28;19948;-71
2023/06/26 00:21:24;;;;;;;;;;;;;;;;;;5012609;28;19921;-71
2023/06/26 00:23:49;;;;;;;;;;;;;;;;;;5011638;28;19922;-68
2023/06/26 00:26:15;;;;;;;;;;;;;;;;;;5013023;28;19919;-70
2023/06/26 00:28:40;;;;;;;;;;;;;;;;;;5012904;28;19918;-71
2023/06/26 00:31:05;;;;;;;;;;;;;;;;;;5014710;28;19995;-70
2023/06/26 00:33:31;;;;;;;;;;;;;;;;;;5019551;28;20415;-71
2023/06/26 00:35:57;;;;;;;;;;;;;;;;;;5017145;28;19913;-71
2023/06/26 00:38:23;;;;;;;;;;;;;;;;;;5012148;28;20319;-71
2023/06/26 00:40:48;;;;;;;;;;;;;;;;;;5012945;28;19925;-70
2023/06/26 00:43:13;;;;;;;;;;;;;;;;;;5014334;28;19948;-70
2023/06/26 00:45:40;;;;;;;;;;;;;;;;;;5019274;28;20020;-69
2023/06/26 00:48:05;;;;;;;;;;;;;;;;;;5012975;28;20602;-67
2023/06/26 00:50:31;;;;;;;;;;;;;;;;;;5013184;28;20373;-69
2023/06/26 00:53:00;;;;;;;;;;;;;;;;;;5011889;28;20004;-70
2023/06/26 00:55:25;;;;;;;;;;;;;;;;;;5015693;28;19924;-71
2023/06/26 00:57:50;;;;;;;;;;;;;;;;;;5012231;28;19921;-70
2023/06/26 01:00:16;;;;;;;;;;;;;;;;;;5011793;28;19928;-73
2023/06/26 01:02:41;;;;;;;;;;;;;;;;;;5018459;28;19928;-71
2023/06/26 01:05:06;;;;;;;;;;;;;;;;;;5010497;28;20462;-69
2023/06/26 01:07:37;;;;;;;;;;;;;;;;;;5010754;28;19923;-71
2023/06/26 01:10:02;;;;;;;;;;;;;;;;;;5011550;28;20004;-69
2023/06/26 01:12:29;;;;;;;;;;;;;;;;;;5010799;28;19924;-72
2023/06/26 01:14:55;;;;;;;;;;;;;;;;;;5011989;28;19917;-66
2023/06/26 01:17:20;;;;;;;;;;;;;;;;;;5011697;28;19921;-71
2023/06/26 01:19:45;;;;;;;;;;;;;;;;;;5013691;28;19917;-72
2023/06/26 01:22:14;;;;;;;;;;;;;;;;;;4998612;28;19956;-69
2023/06/26 01:24:39;;;;;;;;;;;;;;;;;;5011980;28;19917;-72
2023/06/26 01:27:06;;;;;;;;;;;;;;;;;;5010867;28;19925;-71
2023/06/26 01:29:32;;;;;;;;;;;;;;;;;;5011809;28;19995;-71
2023/06/26 01:31:58;;;;;;;;;;;;;;;;;;5014120;28;19968;-72
2023/06/26 01:34:27;;;;;;;;;;;;;;;;;;5012221;28;20078;-73
2023/06/26 01:36:52;;;;;;;;;;;;;;;;;;5012592;28;19948;-71
2023/06/26 01:39:17;;;;;;;;;;;;;;;;;;5012865;28;19922;-69
2023/06/26 01:41:43;;;;;;;;;;;;;;;;;;5013755;28;19929;-75
2023/06/26 01:44:09;;;;;;;;;;;;;;;;;;5010692;28;19921;-73
2023/06/26 01:46:34;;;;;;;;;;;;;;;;;;5011578;28;20295;-73
2023/06/26 01:49:00;;;;;;;;;;;;;;;;;;5012656;28;19923;-70
2023/06/26 01:51:26;;;;;;;;;;;;;;;;;;5008470;28;19968;-71
2023/06/26 01:53:51;;;;;;;;;;;;;;;;;;5011598;28;20423;-70
2023/06/26 01:56:18;;;;;;;;;;;;;;;;;;5012707;28;20356;-73
2023/06/26 01:58:44;;;;;;;;;;;;;;;;;;5011008;28;19917;-71
2023/06/26 02:01:10;;;;;;;;;;;;;;;;;;5013527;28;19932;-72
2023/06/26 02:03:35;;;;;;;;;;;;;;;;;;5010633;28;20304;-73
2023/06/26 02:06:01;;;;;;;;;;;;;;;;;;5011744;28;20008;-72
2023/06/26 02:08:26;;;;;;;;;;;;;;;;;;5013977;28;19917;-70
2023/06/26 02:10:55;;;;;;;;;;;;;;;;;;5013049;28;19917;-73
2023/06/26 02:13:20;;;;;;;;;;;;;;;;;;5012357;28;19928;-68
2023/06/26 02:15:46;;;;;;;;;;;;;;;;;;5011253;28;19918;-69
2023/06/26 02:18:11;;;;;;;;;;;;;;;;;;4995873;28;19928;-73
2023/06/26 02:20:36;;;;;;;;;;;;;;;;;;5011959;28;19932;-73
2023/06/26 02:23:01;;;;;;;;;;;;;;;;;;5014320;28;19928;-71
2023/06/26 02:25:27;;;;;;;;;;;;;;;;;;5011424;28;19917;-70
2023/06/26 02:27:52;;;;;;;;;;;;;;;;;;5009537;28;19917;-69
2023/06/26 02:30:18;;;;;;;;;;;;;;;;;;5009551;28;20336;-71
2023/06/26 02:32:44;;;;;;;;;;;;;;;;;;5014417;28;19917;-70
2023/06/26 02:35:09;;;;;;;;;;;;;;;;;;5011500;28;20692;-73
2023/06/26 02:37:38;;;;;;;;;;;;;;;;;;5010949;28;19924;-72
2023/06/26 02:40:03;;;;;;;;;;;;;;;;;;5012293;28;19925;-71
2023/06/26 02:42:29;;;;;;;;;;;;;;;;;;5011387;28;19937;-71
2023/06/26 02:44:54;;;;;;;;;;;;;;;;;;5012618;28;20028;-70
2023/06/26 02:47:19;;;;;;;;;;;;;;;;;;5016290;28;19968;-71
2023/06/26 02:49:45;;;;;;;;;;;;;;;;;;5013102;28;19923;-71
2023/06/26 02:52:10;;;;;;;;;;;;;;;;;;5016417;28;19960;-72
2023/06/26 02:54:36;;;;;;;;;;;;;;;;;;5021488;28;19932;-69
2023/06/26 02:57:03;;;;;;;;;;;;;;;;;;5014158;28;19914;-72
2023/06/26 02:59:30;;;;;;;;;;;;;;;;;;5022714;28;19918;-71
2023/06/26 03:01:56;;;;;;;;;;;;;;;;;;5015609;28;19921;-69
2023/06/26 03:04:28;;;;;;;;;;;;;;;;;;5023315;28;19943;-68
2023/06/26 03:06:53;;;;;;;;;;;;;;;;;;5013449;28;20349;-72
2023/06/26 03:09:19;;;;;;;;;;;;;;;;;;5023350;28;20380;-70
2023/06/26 03:11:44;;;;;;;;;;;;;;;;;;5012757;28;19917;-72
2023/06/26 03:14:10;;;;;;;;;;;;;;;;;;5012634;28;19917;-68
2023/06/26 03:16:36;;;;;;;;;;;;;;;;;;5016613;28;19940;-69
2023/06/26 03:19:01;;;;;;;;;;;;;;;;;;5023984;28;20383;-69
2023/06/26 03:21:27;;;;;;;;;;;;;;;;;;5015647;28;19921;-72
2023/06/26 03:23:52;;;;;;;;;;;;;;;;;;5022228;28;20375;-70
2023/06/26 03:26:17;;;;;;;;;;;;;;;;;;5020812;28;20399;-71
2023/06/26 03:28:46;;;;;;;;;;;;;;;;;;5013241;28;19917;-69
2023/06/26 03:31:11;;;;;;;;;;;;;;;;;;5016789;28;19963;-72
2023/06/26 03:33:37;;;;;;;;;;;;;;;;;;5019796;28;20311;-68
2023/06/26 03:36:02;;;;;;;;;;;;;;;;;;5013854;28;19960;-69
2023/06/26 03:38:27;;;;;;;;;;;;;;;;;;5015614;28;20380;-72
2023/06/26 03:40:55;;;;;;;;;;;;;;;;;;5011604;28;19921;-72
2023/06/26 03:43:21;;;;;;;;;;;;;;;;;;5016640;28;19979;-72
2023/06/26 03:46:11;;;;;;;;;;;;;;;;;;5021261;28;19921;-72
2023/06/26 03:48:37;;;;;;;;;;;;;;;;;;5015265;28;19971;-70
2023/06/26 03:51:03;;;;;;;;;;;;;;;;;;5015305;28;19925;-72
2023/06/26 03:53:28;;;;;;;;;;;;;;;;;;5019515;28;20392;-73
2023/06/26 03:55:54;;;;;;;;;;;;;;;;;;5014334;28;19918;-70
2023/06/26 03:58:21;;;;;;;;;;;;;;;;;;5018072;28;20032;-64
2023/06/26 04:00:47;;;;;;;;;;;;;;;;;;5014228;28;19925;-71
2023/06/26 04:03:12;;;;;;;;;;;;;;;;;;5013025;28;19921;-69
2023/06/26 04:05:37;;;;;;;;;;;;;;;;;;5013692;28;19928;-71
2023/06/26 04:08:02;;;;;;;;;;;;;;;;;;5011446;28;19921;-70
2023/06/26 04:10:28;;;;;;;;;;;;;;;;;;5010508;28;19921;-67
2023/06/26 04:12:53;;;;;;;;;;;;;;;;;;5019475;28;19921;-69
2023/06/26 04:15:19;;;;;;;;;;;;;;;;;;5013647;28;20322;-71
2023/06/26 04:17:44;;;;;;;;;;;;;;;;;;5009943;28;19976;-71
2023/06/26 04:20:09;;;;;;;;;;;;;;;;;;5009102;28;19960;-69
2023/06/26 04:22:35;;;;;;;;;;;;;;;;;;5010539;28;19921;-70
2023/06/26 04:25:00;;;;;;;;;;;;;;;;;;5012100;28;19953;-68
2023/06/26 04:27:25;;;;;;;;;;;;;;;;;;5010861;28;20347;-72
2023/06/26 04:29:51;;;;;;;;;;;;;;;;;;5009568;28;20276;-70
2023/06/26 04:32:16;;;;;;;;;;;;;;;;;;5011660;28;19940;-71
2023/06/26 04:34:44;;;;;;;;;;;;;;;;;;5012323;28;19917;-71
2023/06/26 04:37:10;;;;;;;;;;;;;;;;;;5019454;28;19917;-72
2023/06/26 04:39:36;;;;;;;;;;;;;;;;;;5009325;28;20199;-69
2023/06/26 04:42:02;;;;;;;;;;;;;;;;;;5011178;28;19925;-71
2023/06/26 04:44:27;;;;;;;;;;;;;;;;;;5010950;28;19921;-71
2023/06/26 04:46:53;;;;;;;;;;;;;;;;;;5012292;28;19917;-73
2023/06/26 04:49:19;;;;;;;;;;;;;;;;;;5012252;28;19921;-73
2023/06/26 04:51:45;;;;;;;;;;;;;;;;;;5012379;28;19917;-68
2023/06/26 04:54:10;;;;;;;;;;;;;;;;;;5011233;28;20361;-71
2023/06/26 04:56:36;;;;;;;;;;;;;;;;;;5012623;28;19956;-70
2023/06/26 04:59:01;;;;;;;;;;;;;;;;;;5015411;28;19939;-71
2023/06/26 05:01:31;;;;;;;;;;;;;;;;;;5011257;28;19925;-68
2023/06/26 05:03:57;;;;;;;;;;;;;;;;;;5011032;28;19921;-68
2023/06/26 05:06:22;;;;;;;;;;;;;;;;;;5011299;28;20619;-68
2023/06/26 05:08:48;;;;;;;;;;;;;;;;;;5012472;28;19917;-66
2023/06/26 05:11:13;;;;;;;;;;;;;;;;;;5014258;28;19918;-71
2023/06/26 05:13:38;;;;;;;;;;;;;;;;;;5010159;28;19933;-66
2023/06/26 05:16:03;;;;;;;;;;;;;;;;;;5011538;28;19921;-68
2023/06/26 05:18:29;;;;;;;;;;;;;;;;;;5012366;28;20251;-70
2023/06/26 05:20:54;;;;;;;;;;;;;;;;;;5019859;28;20023;-69
2023/06/26 05:23:21;;;;;;;;;;;;;;;;;;5012701;28;20536;-62
2023/06/26 05:25:46;;;;;;;;;;;;;;;;;;5011191;28;19941;-68
2023/06/26 05:28:12;;;;;;;;;;;;;;;;;;5009031;28;20313;-69
2023/06/26 05:30:37;;;;;;;;;;;;;;;;;;5010895;28;20316;-67
2023/06/26 05:33:03;;;;;;;;;;;;;;;;;;5010937;28;19921;-70
2023/06/26 05:35:28;;;;;;;;;;;;;;;;;;5011218;28;19921;-68
2023/06/26 05:37:54;;;;;;;;;;;;;;;;;;5020044;28;20168;-68
2023/06/26 05:40:19;;;;;;;;;;;;;;;;;;5016926;28;19921;-70
2023/06/26 05:42:44;;;;;;;;;;;;;;;;;;5012014;28;20010;-66
2023/06/26 05:45:10;;;;;;;;;;;;;;;;;;5012155;28;20320;-69
2023/06/26 05:47:35;;;;;;;;;;;;;;;;;;5011019;28;20016;-69
2023/06/26 05:50:01;;;;;;;;;;;;;;;;;;5017130;28;19917;-68
2023/06/26 05:52:26;;;;;;;;;;;;;;;;;;5011755;28;19918;-69
2023/06/26 05:54:52;;;;;;;;;;;;;;;;;;5009741;28;20396;-69
2023/06/26 05:57:17;;;;;;;;;;;;;;;;;;5010312;28;19913;-65
2023/06/26 05:59:42;;;;;;;;;;;;;;;;;;5012148;28;19917;-66
2023/06/26 06:02:08;;;;;;;;;;;;;;;;;;5010975;28;19975;-69
2023/06/26 06:04:34;;;;;;;;;;;;;;;;;;5010115;28;19918;-66
2023/06/26 06:07:00;;;;;;;;;;;;;;;;;;5010966;28;20002;-66
2023/06/26 06:09:25;;;;;;;;;;;;;;;;;;5011008;28;20007;-65
2023/06/26 06:11:50;;;;;;;;;;;;;;;;;;5010599;28;20360;-65
2023/06/26 06:14:16;;;;;;;;;;;;;;;;;;5010470;28;20284;-67
2023/06/26 06:16:41;;;;;;;;;;;;;;;;;;5010711;28;20303;-65
2023/06/26 06:19:11;;;;;;;;;;;;;;;;;;5015460;28;19921;-67
2023/06/26 06:21:36;;;;;;;;;;;;;;;;;;5014283;28;19921;-64
2023/06/26 06:24:01;;;;;;;;;;;;;;;;;;5014207;28;19974;-65
2023/06/26 06:26:27;;;;;;;;;;;;;;;;;;5014577;28;19917;-66
2023/06/26 06:28:52;;;;;;;;;;;;;;;;;;5015061;28;20015;-65
2023/06/26 06:31:18;;;;;;;;;;;;;;;;;;5016484;28;19921;-65
2023/06/26 06:33:43;;;;;;;;;;;;;;;;;;5015542;28;19923;-67
2023/06/26 06:36:08;;;;;;;;;;;;;;;;;;5016131;28;19917;-64
2023/06/26 06:38:34;;;;;;;;;;;;;;;;;;5016275;28;19917;-66
2023/06/26 06:40:59;;;;;;;;;;;;;;;;;;5014909;28;19928;-66
2023/06/26 06:43:25;;;;;;;;;;;;;;;;;;5016098;28;20012;-66
2023/06/26 06:45:50;;;;;;;;;;;;;;;;;;5014330;28;20403;-67
2023/06/26 06:48:15;;;;;;;;;;;;;;;;;;5014070;28;20036;-66
2023/06/26 06:50:41;;;;;;;;;;;;;;;;;;5014580;28;20459;-65
2023/06/26 06:53:06;;;;;;;;;;;;;;;;;;5014470;28;19917;-68
2023/06/26 06:55:32;;;;;;;;;;;;;;;;;;5013674;28;19917;-63
2023/06/26 06:57:57;;;;;;;;;;;;;;;;;;5013156;28;19917;-64
2023/06/26 07:00:22;;;;;;;;;;;;;;;;;;5014453;28;20388;-62
2023/06/26 07:02:47;;;;;;;;;;;;;;;;;;5016343;28;19932;-62
2023/06/26 07:05:13;;;;;;;;;;;;;;;;;;5014814;28;20001;-65
2023/06/26 07:07:38;;;;;;;;;;;;;;;;;;5009847;28;19929;-67
2023/06/26 07:10:03;;;;;;;;;;;;;;;;;;5010341;28;19917;-64
2023/06/26 07:12:28;;;;;;;;;;;;;;;;;;5010978;28;19936;-65
2023/06/26 07:14:54;;;;;;;;;;;;;;;;;;5012173;28;20564;-65
2023/06/26 07:17:19;;;;;;;;;;;;;;;;;;5013226;28;19928;-61
2023/06/26 07:19:44;;;;;;;;;;;;;;;;;;5013357;28;19924;-64
2023/06/26 07:22:10;;;;;;;;;;;;;;;;;;5011654;28;19925;-64
2023/06/26 07:24:35;;;;;;;;;;;;;;;;;;5010391;28;20414;-65
2023/06/26 07:27:00;;;;;;;;;;;;;;;;;;5009681;28;19922;-65
2023/06/26 07:29:27;;;;;;;;;;;;;;;;;;5014984;28;20476;-64
2023/06/26 07:31:52;;;;;;;;;;;;;;;;;;5013571;28;20364;-63
2023/06/26 07:34:18;;;;;;;;;;;;;;;;;;5010797;28;20208;-66
2023/06/26 07:36:43;;;;;;;;;;;;;;;;;;5011350;28;20403;-67
2023/06/26 07:39:08;;;;;;;;;;;;;;;;;;5013484;28;20472;-64
2023/06/26 07:41:34;;;;;;;;;;;;;;;;;;5012263;28;20275;-63
2023/06/26 07:43:59;;;;;;;;;;;;;;;;;;5008967;28;19921;-62
2023/06/26 07:46:24;;;;;;;;;;;;;;;;;;5011196;28;20313;-67
2023/06/26 07:48:50;;;;;;;;;;;;;;;;;;5012076;28;20364;-68
2023/06/26 07:51:15;;;;;;;;;;;;;;;;;;5011629;28;20436;-68
2023/06/26 07:53:40;;;;;;;;;;;;;;;;;;5010567;28;19943;-65
2023/06/26 07:56:06;;;;;;;;;;;;;;;;;;5009697;28;19917;-68
2023/06/26 07:58:31;;;;;;;;;;;;;;;;;;5012807;28;19925;-65
2023/06/26 08:00:56;;;;;;;;;;;;;;;;;;5011624;28;19926;-66
2023/06/26 08:03:21;;;;;;;;;;;;;;;;;;5010228;28;19933;-62
2023/06/26 08:05:47;;;;;;;;;;;;;;;;;;5008282;28;19993;-70
2023/06/26 08:08:12;;;;;;;;;;;;;;;;;;5010475;28;19921;-66
2023/06/26 08:10:37;;;;;;;;;;;;;;;;;;5009510;28;19917;-62
2023/06/26 08:13:02;;;;;;;;;;;;;;;;;;5008518;28;20517;-64
2023/06/26 08:15:28;;;;;;;;;;;;;;;;;;5010770;28;19922;-63
2023/06/26 08:17:53;;;;;;;;;;;;;;;;;;5011233;28;19921;-61
2023/06/26 08:20:19;;;;;;;;;;;;;;;;;;5006149;28;19943;-63
2023/06/26 08:22:44;;;;;;;;;;;;;;;;;;5006928;28;19936;-63
2023/06/26 08:25:10;;;;;;;;;;;;;;;;;;5011470;28;20377;-64
2023/06/26 08:27:35;;;;;;;;;;;;;;;;;;5012864;28;20788;-64
2023/06/26 08:30:00;;;;;;;;;;;;;;;;;;5011508;28;20407;-63
2023/06/26 08:32:26;;;;;;;;;;;;;;;;;;5011000;28;19917;-63
2023/06/26 08:34:51;;;;;;;;;;;;;;;;;;5011447;28;20149;-63
2023/06/26 08:37:17;;;;;;;;;;;;;;;;;;5011811;28;19945;-64
2023/06/26 08:39:42;;;;;;;;;;;;;;;;;;5011593;28;19917;-63
2023/06/26 08:42:08;;;;;;;;;;;;;;;;;;4998717;28;19933;-65
2023/06/26 08:44:33;;;;;;;;;;;;;;;;;;5011161;28;20403;-63
2023/06/26 08:46:58;;;;;;;;;;;;;;;;;;5013883;28;20407;-64
2023/06/26 08:49:24;;;;;;;;;;;;;;;;;;5011010;28;19924;-66
2023/06/26 08:51:49;;;;;;;;;;;;;;;;;;5013520;28;19927;-63
2023/06/26 08:54:14;;;;;;;;;;;;;;;;;;5012953;28;20462;-64
2023/06/26 08:56:39;;;;;;;;;;;;;;;;;;5012091;28;19940;-66
2023/06/26 08:59:05;;;;;;;;;;;;;;;;;;5009947;28;19921;-65
2023/06/26 09:01:31;;;;;;;;;;;;;;;;;;5014655;28;20407;-68
2023/06/26 09:03:56;;;;;;;;;;;;;;;;;;5011345;28;19928;-66
2023/06/26 09:06:21;;;;;;;;;;;;;;;;;;5014549;28;19917;-65
2023/06/26 09:08:46;;;;;;;;;;;;;;;;;;5008608;28;20368;-66
2023/06/26 09:11:12;;;;;;;;;;;;;;;;;;5012845;28;19918;-71
2023/06/26 09:13:37;;;;;;;;;;;;;;;;;;5012578;28;20410;-71
2023/06/26 09:16:02;;;;;;;;;;;;;;;;;;5019173;28;20580;-72
2023/06/26 09:18:28;;;;;;;;;;;;;;;;;;5010348;28;20376;-75
2023/06/26 09:20:53;;;;;;;;;;;;;;;;;;5011636;28;20023;-71
2023/06/26 09:23:19;;;;;;;;;;;;;;;;;;5018748;28;20206;-76
2023/06/26 09:25:45;;;;;;;;;;;;;;;;;;5012199;28;19918;-76
2023/06/26 09:28:10;;;;;;;;;;;;;;;;;;5011432;28;19923;-77
2023/06/26 09:30:36;;;;;;;;;;;;;;;;;;5012060;28;19918;-72
2023/06/26 09:33:01;;;;;;;;;;;;;;;;;;5012554;28;19992;-73
2023/06/26 09:35:26;;;;;;;;;;;;;;;;;;5012989;28;19956;-75
2023/06/26 09:37:52;;;;;;;;;;;;;;;;;;5014310;28;19924;-73
2023/06/26 09:40:17;;;;;;;;;;;;;;;;;;5016526;28;19928;-75
2023/06/26 09:42:42;;;;;;;;;;;;;;;;;;5014768;28;19928;-75
2023/06/26 09:45:07;;;;;;;;;;;;;;;;;;5015490;28;20035;-74
2023/06/26 09:47:33;;;;;;;;;;;;;;;;;;5013685;28;20440;-76
2023/06/26 09:49:58;;;;;;;;;;;;;;;;;;5018170;28;19921;-74
2023/06/26 09:52:24;;;;;;;;;;;;;;;;;;5011498;28;20292;-74
2023/06/26 09:54:49;;;;;;;;;;;;;;;;;;5010233;28;20445;-75
2023/06/26 09:57:14;;;;;;;;;;;;;;;;;;5012231;28;19917;-75
2023/06/26 09:59:40;;;;;;;;;;;;;;;;;;5012337;28;19917;-75
2023/06/26 10:02:05;;;;;;;;;;;;;;;;;;5012301;28;19918;-73
2023/06/26 10:04:30;;;;;;;;;;;;;;;;;;5010640;28;19928;-75
2023/06/26 10:06:56;;;;;;;;;;;;;;;;;;5010242;28;19971;-73
2023/06/26 10:09:21;;;;;;;;;;;;;;;;;;5011987;28;20347;-73
2023/06/26 10:11:46;;;;;;;;;;;;;;;;;;5010946;28;20043;-76
2023/06/26 10:14:12;;;;;;;;;;;;;;;;;;5010943;28;20284;-74
2023/06/26 10:16:37;;;;;;;;;;;;;;;;;;5012010;28;20049;-75
2023/06/26 10:19:02;;;;;;;;;;;;;;;;;;5011916;28;19932;-73
2023/06/26 10:21:28;;;;;;;;;;;;;;;;;;5011511;28;20460;-73
2023/06/26 10:23:53;;;;;;;;;;;;;;;;;;5011884;28;20016;-73
2023/06/26 10:26:18;;;;;;;;;;;;;;;;;;5012825;28;19917;-72
2023/06/26 10:28:45;;;;;;;;;;;;;;;;;;5011331;28;19917;-76
2023/06/26 10:31:10;;;;;;;;;;;;;;;;;;5012537;28;19925;-74
2023/06/26 10:33:36;;;;;;;;;;;;;;;;;;5009815;28;19948;-72
2023/06/26 10:36:02;;;;;;;;;;;;;;;;;;5010304;28;20411;-73
2023/06/26 10:38:28;;;;;;;;;;;;;;;;;;5011635;28;19948;-74
2023/06/26 10:40:53;;;;;;;;;;;;;;;;;;5010773;28;19917;-72
2023/06/26 10:43:19;;;;;;;;;;;;;;;;;;5009527;28;19968;-72
2023/06/26 10:45:46;;;;;;;;;;;;;;;;;;5010894;28;19913;-71
2023/06/26 10:48:12;;;;;;;;;;;;;;;;;;5019358;28;19921;-72
2023/06/26 10:50:37;;;;;;;;;;;;;;;;;;5010748;28;20003;-74
2023/06/26 10:53:03;;;;;;;;;;;;;;;;;;5011035;28;19921;-73
2023/06/26 10:55:28;;;;;;;;;;;;;;;;;;5011990;28;20348;-71
2023/06/26 10:57:54;;;;;;;;;;;;;;;;;;5005674;28;19917;-72
2023/06/26 11:00:19;;;;;;;;;;;;;;;;;;5008760;28;19927;-68
2023/06/26 11:02:44;;;;;;;;;;;;;;;;;;5011497;28;19969;-70
2023/06/26 11:05:10;;;;;;;;;;;;;;;;;;5014239;28;19924;-66
2023/06/26 11:07:35;;;;;;;;;;;;;;;;;;5013248;28;19960;-69
2023/06/26 11:10:01;;;;;;;;;;;;;;;;;;5014711;28;20194;-68
2023/06/26 11:12:30;;;;;;;;;;;;;;;;;;5013740;28;20446;-68
2023/06/26 11:14:55;;;;;;;;;;;;;;;;;;5015702;28;20368;-69
2023/06/26 11:17:20;;;;;;;;;;;;;;;;;;5014676;28;19917;-69
2023/06/26 11:19:46;;;;;;;;;;;;;;;;;;5014674;28;19924;-69
2023/06/26 11:22:11;;;;;;;;;;;;;;;;;;5013452;28;19918;-67
2023/06/26 11:24:37;;;;;;;;;;;;;;;;;;5013712;28;20356;-67
2023/06/26 11:27:03;;;;;;;;;;;;;;;;;;5013694;28;19921;-67
2023/06/26 11:29:28;;;;;;;;;;;;;;;;;;5014423;28;20015;-67
2023/06/26 11:31:53;;;;;;;;;;;;;;;;;;5012547;28;19960;-66
2023/06/26 11:34:19;;;;;;;;;;;;;;;;;;5013582;28;20262;-66
2023/06/26 11:36:46;;;;;;;;;;;;;;;;;;5013178;28;19932;-64
2023/06/26 11:39:11;;;;;;;;;;;;;;;;;;5013309;28;20000;-65
2023/06/26 11:41:37;;;;;;;;;;;;;;;;;;5012653;28;19921;-65
2023/06/26 11:44:02;;;;;;;;;;;;;;;;;;5012800;28;19921;-65
2023/06/26 11:46:27;;;;;;;;;;;;;;;;;;5013881;28;19921;-63
2023/06/26 11:48:52;;;;;;;;;;;;;;;;;;5014268;28;19924;-65
2023/06/26 11:51:18;;;;;;;;;;;;;;;;;;5010490;28;19921;-66
2023/06/26 11:53:43;;;;;;;;;;;;;;;;;;5011679;28;19932;-62
2023/06/26 11:56:09;;;;;;;;;;;;;;;;;;5012812;28;19924;-60
2023/06/26 11:58:34;;;;;;;;;;;;;;;;;;5012603;28;20301;-61
2023/06/26 12:00:59;;;;;;;;;;;;;;;;;;5010393;28;19947;-59
2023/06/26 12:03:24;;;;;;;;;;;;;;;;;;5011458;28;19921;-62
2023/06/26 12:05:52;;;;;;;;;;;;;;;;;;5012197;28;19921;-60
2023/06/26 12:08:17;;;;;;;;;;;;;;;;;;5010181;28;19917;-60
2023/06/26 12:10:42;;;;;;;;;;;;;;;;;;5021349;28;20389;-60
2023/06/26 12:13:08;;;;;;;;;;;;;;;;;;5016878;28;19944;-60
2023/06/26 12:15:33;;;;;;;;;;;;;;;;;;5011363;28;19925;-60
2023/06/26 12:17:58;;;;;;;;;;;;;;;;;;5008626;28;20383;-60
2023/06/26 12:20:25;;;;;;;;;;;;;;;;;;5008377;28;20007;-59
2023/06/26 12:22:50;;;;;;;;;;;;;;;;;;5011202;28;19928;-61
2023/06/26 12:25:16;;;;;;;;;;;;;;;;;;5012572;28;19918;-66
2023/06/26 12:27:41;;;;;;;;;;;;;;;;;;5010121;28;19917;-67
2023/06/26 12:30:07;;;;;;;;;;;;;;;;;;5011813;28;19963;-63
2023/06/26 12:32:32;;;;;;;;;;;;;;;;;;5011035;28;19923;-65
2023/06/26 12:34:58;;;;;;;;;;;;;;;;;;5010624;28;19917;-65
2023/06/26 12:37:23;;;;;;;;;;;;;;;;;;5010000;28;20038;-65
2023/06/26 12:39:48;;;;;;;;;;;;;;;;;;5009238;28;19929;-65
2023/06/26 12:42:14;;;;;;;;;;;;;;;;;;5010824;28;20339;-65
2023/06/26 12:44:39;;;;;;;;;;;;;;;;;;5013247;28;20276;-66
2023/06/26 12:47:06;;;;;;;;;;;;;;;;;;5010393;28;19928;-61
2023/06/26 12:49:34;;;;;;;;;;;;;;;;;;5009609;28;19948;-61
2023/06/26 12:51:59;;;;;;;;;;;;;;;;;;5010077;28;19920;-61
2023/06/26 12:54:25;;;;;;;;;;;;;;;;;;5011553;28;19925;-62
2023/06/26 12:56:50;;;;;;;;;;;;;;;;;;5011385;28;20041;-62
2023/06/26 12:59:16;;;;;;;;;;;;;;;;;;5010623;28;19917;-64
2023/06/26 13:01:41;;;;;;;;;;;;;;;;;;5013829;28;19925;-61
2023/06/26 13:04:08;;;;;;;;;;;;;;;;;;5018992;28;19921;-62
2023/06/26 13:06:33;;;;;;;;;;;;;;;;;;5009845;28;19924;-64
2023/06/26 13:08:58;;;;;;;;;;;;;;;;;;5011888;28;20281;-63
2023/06/26 13:11:24;;;;;;;;;;;;;;;;;;5006330;28;20829;-63
2023/06/26 13:13:50;;;;;;;;;;;;;;;;;;5006993;28;19936;-63
2023/06/26 13:16:16;;;;;;;;;;;;;;;;;;5009269;28;20416;-63
2023/06/26 13:18:41;;;;;;;;;;;;;;;;;;5011674;28;20135;-63
2023/06/26 13:21:07;;;;;;;;;;;;;;;;;;5007975;28;20502;-63
2023/06/26 13:23:32;;;;;;;;;;;;;;;;;;5013251;28;20393;-63
2023/06/26 13:25:57;;;;;;;;;;;;;;;;;;5009624;28;19921;-63
2023/06/26 13:28:23;;;;;;;;;;;;;;;;;;5009697;28;20441;-64
2023/06/26 13:30:49;;;;;;;;;;;;;;;;;;5010431;28;20376;-63
2023/06/26 13:33:14;;;;;;;;;;;;;;;;;;5014390;28;19922;-64
2023/06/26 13:35:40;;;;;;;;;;;;;;;;;;5016025;28;19918;-63
2023/06/26 13:38:05;;;;;;;;;;;;;;;;;;5010541;28;20415;-63
2023/06/26 13:40:30;;;;;;;;;;;;;;;;;;5010844;28;20378;-60
2023/06/26 13:42:55;;;;;;;;;;;;;;;;;;5025720;28;20324;-61
2023/06/26 13:45:21;;;;;;;;;;;;;;;;;;5009092;28;19924;-61
2023/06/26 13:47:46;;;;;;;;;;;;;;;;;;5009108;28;19921;-61
2023/06/26 13:50:11;;;;;;;;;;;;;;;;;;5011507;28;19918;-62
2023/06/26 13:52:37;;;;;;;;;;;;;;;;;;5009053;28;19921;-62
2023/06/26 13:55:04;;;;;;;;;;;;;;;;;;5010292;28;19925;-62
2023/06/26 13:57:30;;;;;;;;;;;;;;;;;;5008117;28;19961;-63
2023/06/26 13:59:55;;;;;;;;;;;;;;;;;;5004640;28;19917;-63
2023/06/26 14:02:20;;;;;;;;;;;;;;;;;;5013281;28;19932;-61
2023/06/26 14:04:46;;;;;;;;;;;;;;;;;;5011108;28;19917;-66
2023/06/26 14:07:11;;;;;;;;;;;;;;;;;;5008093;28;20383;-62
2023/06/26 14:09:36;;;;;;;;;;;;;;;;;;5008074;28;19917;-61
2023/06/26 14:12:02;;;;;;;;;;;;;;;;;;5011681;28;19917;-61
2023/06/26 14:14:27;;;;;;;;;;;;;;;;;;5011499;28;19917;-62
2023/06/26 14:16:52;;;;;;;;;;;;;;;;;;5009065;28;19922;-63
2023/06/26 14:19:18;;;;;;;;;;;;;;;;;;5010907;28;20503;-63
2023/06/26 14:21:43;;;;;;;;;;;;;;;;;;5010890;28;19926;-61
2023/06/26 14:24:09;;;;;;;;;;;;;;;;;;5010153;28;20362;-61
2023/06/26 14:26:34;;;;;;;;;;;;;;;;;;5011138;28;20268;-62
2023/06/26 14:29:00;;;;;;;;;;;;;;;;;;5011378;28;20340;-61
2023/06/26 14:31:26;;;;;;;;;;;;;;;;;;5011503;28;20360;-62
2023/06/26 14:33:52;;;;;;;;;;;;;;;;;;5008523;28;19917;-61
2023/06/26 14:36:17;;;;;;;;;;;;;;;;;;5010636;28;20021;-62
2023/06/26 14:38:42;;;;;;;;;;;;;;;;;;5012620;28;20481;-62
2023/06/26 14:41:08;;;;;;;;;;;;;;;;;;5015227;28;19936;-61
2023/06/26 14:43:33;;;;;;;;;;;;;;;;;;5014204;28;19936;-61
2023/06/26 14:45:59;;;;;;;;;;;;;;;;;;5014977;28;19921;-62
2023/06/26 14:48:24;;;;;;;;;;;;;;;;;;5014137;28;20327;-63
2023/06/26 14:50:50;;;;;;;;;;;;;;;;;;5014875;28;19918;-61
2023/06/26 14:53:15;;;;;;;;;;;;;;;;;;5015695;28;19925;-61
2023/06/26 14:55:41;;;;;;;;;;;;;;;;;;5022667;28;19944;-61
2023/06/26 14:58:07;;;;;;;;;;;;;;;;;;5013160;28;19917;-60
2023/06/26 15:00:32;;;;;;;;;;;;;;;;;;5014144;28;20497;-63
2023/06/26 15:02:58;;;;;;;;;;;;;;;;;;5015067;28;20064;-63
2023/06/26 15:05:23;;;;;;;;;;;;;;;;;;5015080;28;19940;-62
2023/06/26 15:07:48;;;;;;;;;;;;;;;;;;5013199;28;20376;-64
2023/06/26 15:10:14;;;;;;;;;;;;;;;;;;5013573;28;20195;-64
2023/06/26 15:12:39;;;;;;;;;;;;;;;;;;5015436;28;20012;-66
2023/06/26 15:15:04;;;;;;;;;;;;;;;;;;5013098;28;19917;-65
2023/06/26 15:17:30;;;;;;;;;;;;;;;;;;5011865;28;19921;-62
2023/06/26 15:19:56;;;;;;;;;;;;;;;;;;5013861;28;19940;-67
2023/06/26 15:22:21;;;;;;;;;;;;;;;;;;5014670;28;19921;-64
2023/06/26 15:24:46;;;;;;;;;;;;;;;;;;5013589;28;20229;-65
2023/06/26 15:27:13;;;;;;;;;;;;;;;;;;5014086;28;19928;-65
2023/06/26 15:29:38;;;;;;;;;;;;;;;;;;5014276;28;19921;-64
2023/06/26 15:32:04;;;;;;;;;;;;;;;;;;5013332;28;19940;-62
2023/06/26 15:34:29;;;;;;;;;;;;;;;;;;5013951;28;19917;-64
2023/06/26 15:36:55;;;;;;;;;;;;;;;;;;5013171;28;20253;-63
2023/06/26 15:39:20;;;;;;;;;;;;;;;;;;5012722;28;19917;-64
2023/06/26 15:41:45;;;;;;;;;;;;;;;;;;5012805;28;20274;-66
2023/06/26 15:44:10;;;;;;;;;;;;;;;;;;5012940;28;19914;-66
2023/06/26 15:46:36;;;;;;;;;;;;;;;;;;5013996;28;20300;-66
2023/06/26 15:49:01;;;;;;;;;;;;;;;;;;5013139;28;20398;-66
2023/06/26 15:51:26;;;;;;;;;;;;;;;;;;5014144;28;20433;-66
2023/06/26 15:53:52;;;;;;;;;;;;;;;;;;5014377;28;20040;-65
2023/06/26 15:56:18;;;;;;;;;;;;;;;;;;5014181;28;20016;-69
2023/06/26 15:58:45;;;;;;;;;;;;;;;;;;5014752;28;19918;-64
2023/06/26 16:01:11;;;;;;;;;;;;;;;;;;5013780;28;20375;-67
2023/06/26 16:03:36;;;;;;;;;;;;;;;;;;5013562;28;19917;-69
2023/06/26 16:06:01;;;;;;;;;;;;;;;;;;5014048;28;19923;-72
2023/06/26 16:08:26;;;;;;;;;;;;;;;;;;5014078;28;19917;-65
2023/06/26 16:10:52;;;;;;;;;;;;;;;;;;5014116;28;19959;-66
2023/06/26 16:13:19;;;;;;;;;;;;;;;;;;5013387;28;19943;-65
2023/06/26 16:15:45;;;;;;;;;;;;;;;;;;5011364;28;20384;-66
2023/06/26 16:18:10;;;;;;;;;;;;;;;;;;5018646;28;19923;-64
2023/06/26 16:20:35;;;;;;;;;;;;;;;;;;5013987;28;19929;-63
2023/06/26 16:23:00;;;;;;;;;;;;;;;;;;5013288;28;19971;-64
2023/06/26 16:25:26;;;;;;;;;;;;;;;;;;5014664;28;19921;-65
2023/06/26 16:27:51;;;;;;;;;;;;;;;;;;5020031;28;19922;-67
2023/06/26 16:30:17;;;;;;;;;;;;;;;;;;5022255;28;20414;-63
2023/06/26 16:32:43;;;;;;;;;;;;;;;;;;5013908;28;19924;-62
2023/06/26 16:35:08;;;;;;;;;;;;;;;;;;5013605;28;20231;-64